createdAt,value
2023-02-02T00:00:34.164Z,44.2
2023-02-02T00:05:52.084Z,43.3
2023-02-02T00:11:10.283Z,43.5
2023-02-02T00:16:29.234Z,44.1
2023-02-02T00:21:47.665Z,43.6
2023-02-02T00:27:06.304Z,43.4
2023-02-02T00:32:24.584Z,44.1
2023-02-02T00:37:42.573Z,43.5
2023-02-02T00:43:00.775Z,44.2
2023-02-02T00:48:19.011Z,43.6
2023-02-02T00:53:37.470Z,44.2
2023-02-02T00:58:55.987Z,44.2
2023-02-02T01:04:14.545Z,43.9
2023-02-02T01:09:33.283Z,43.4
2023-02-02T01:14:52.071Z,43.8
2023-02-02T01:20:10.643Z,43.6
2023-02-02T01:25:28.964Z,43.8
2023-02-02T01:30:47.809Z,44.3
2023-02-02T01:36:05.763Z,44.5
2023-02-02T01:41:23.690Z,43.5
2023-02-02T01:46:42.228Z,44.7
2023-02-02T01:52:00.812Z,44.3
2023-02-02T01:57:18.989Z,43.6
2023-02-02T02:02:37.579Z,43.6
2023-02-02T02:07:55.900Z,43.7
2023-02-02T02:13:13.807Z,43.5
2023-02-02T02:18:32.007Z,43.8
2023-02-02T02:23:50.329Z,44.7
2023-02-02T02:29:08.221Z,43.7
2023-02-02T02:34:26.759Z,43.9
2023-02-02T02:39:45.441Z,43.7
2023-02-02T02:45:03.620Z,43.9
2023-02-02T02:50:22.400Z,44.6
2023-02-02T02:55:41.023Z,44.4
2023-02-02T03:00:59.488Z,44.3
2023-02-02T03:06:18.265Z,43.7
2023-02-02T03:11:36.585Z,44.5
2023-02-02T03:22:27.061Z,44.4
2023-02-02T03:27:45.591Z,43.8
2023-02-02T03:33:04.066Z,44.4
2023-02-02T03:38:22.874Z,44.3
2023-02-02T03:43:41.408Z,44.4
2023-02-02T03:49:00.153Z,44.3
2023-02-02T03:54:18.623Z,44.4
2023-02-02T03:59:36.626Z,43.6
2023-02-02T04:04:55.105Z,43.8
2023-02-02T04:10:13.587Z,44.3
2023-02-02T04:15:32.127Z,43.7
2023-02-02T04:20:50.299Z,43.6
2023-02-02T04:26:08.543Z,44.3
2023-02-02T04:31:27.218Z,44.5
2023-02-02T04:36:45.780Z,44.1
2023-02-02T04:42:04.268Z,44.3
2023-02-02T04:47:23.069Z,43.6
2023-02-02T04:52:41.543Z,43.4
2023-02-02T05:03:27.831Z,43.5
2023-02-02T05:08:46.092Z,44.3
2023-02-02T05:14:04.562Z,44.1
2023-02-02T05:19:22.807Z,43.5
2023-02-02T05:24:41.076Z,43.4
2023-02-02T05:30:00.000Z,44.2
2023-02-02T05:35:18.285Z,44.3
2023-02-02T05:40:36.828Z,44
2023-02-02T05:45:55.772Z,43.7
2023-02-02T05:51:13.812Z,44.1
2023-02-02T05:56:31.946Z,42.3
2023-02-02T06:01:50.750Z,44.1
2023-02-02T06:07:08.702Z,44
2023-02-02T06:12:27.208Z,44.8
2023-02-02T06:17:45.435Z,44.7
2023-02-02T06:23:04.099Z,44
2023-02-02T06:28:23.031Z,43.9
2023-02-02T06:33:41.227Z,44.4
2023-02-02T06:38:59.837Z,44.7
2023-02-02T06:44:18.034Z,44.6
2023-02-02T06:49:36.661Z,43.7
2023-02-02T06:54:55.443Z,44.6
2023-02-02T07:00:13.716Z,44.6
2023-02-02T07:05:32.945Z,44.6
2023-02-02T07:11:17.786Z,43.5
2023-02-02T07:16:39.399Z,44.3
2023-02-02T07:21:57.868Z,43.7
2023-02-02T07:27:16.100Z,44.5
2023-02-02T07:32:34.553Z,43.8
2023-02-02T07:37:53.098Z,44.5
2023-02-02T07:43:11.314Z,43.9
2023-02-02T07:48:29.289Z,43.7
2023-02-02T07:53:47.697Z,44.3
2023-02-02T07:59:05.949Z,44.1
2023-02-02T08:04:24.732Z,43.8
2023-02-02T08:09:43.265Z,44.4
2023-02-02T08:15:02.153Z,44
2023-02-02T08:20:21.038Z,44.3
2023-02-02T08:25:39.519Z,44.2
2023-02-02T08:30:58.339Z,43.9
2023-02-02T08:36:16.954Z,43.9
2023-02-02T08:41:35.924Z,43.7
2023-02-02T08:46:54.797Z,42.8
2023-02-02T08:52:14.175Z,43.3
2023-02-02T08:57:32.955Z,42.5
2023-02-02T09:02:54.499Z,43.8
2023-02-02T09:08:13.275Z,43
2023-02-02T09:13:31.529Z,43.5
2023-02-02T09:18:50.084Z,43.2
2023-02-02T09:24:09.039Z,43.3
2023-02-02T09:29:28.090Z,43.8
2023-02-02T09:34:46.341Z,42.9
2023-02-02T09:40:05.028Z,42.6
2023-02-02T09:45:24.967Z,43.2
2023-02-02T09:50:43.372Z,42.9
2023-02-02T09:56:01.915Z,42.7
2023-02-02T10:01:20.512Z,42.8
2023-02-02T10:06:39.391Z,42.4
2023-02-02T10:11:57.830Z,42.7
2023-02-02T10:17:16.628Z,42.8
2023-02-02T10:22:35.453Z,42
2023-02-02T10:27:53.689Z,42.7
2023-02-02T10:33:12.650Z,42
2023-02-02T10:38:31.290Z,42.4
2023-02-02T10:43:49.832Z,41.5
2023-02-02T10:49:08.689Z,41.6
2023-02-02T10:54:27.465Z,42
2023-02-02T10:59:46.227Z,42
2023-02-02T11:05:05.072Z,41.5
2023-02-02T11:10:24.787Z,41.3
2023-02-02T11:15:43.473Z,41.4
2023-02-02T11:21:01.683Z,41.1
2023-02-02T11:26:20.653Z,41.9
2023-02-02T11:31:39.668Z,41.9
2023-02-02T11:36:57.930Z,41
2023-02-02T11:42:16.497Z,41.6
2023-02-02T11:47:34.631Z,41.3
2023-02-02T11:52:53.433Z,41.2
2023-02-02T11:58:12.902Z,41.2
2023-02-02T12:03:31.530Z,41.3
2023-02-02T12:08:50.135Z,40.9
2023-02-02T12:14:08.858Z,40.8
2023-02-02T12:19:27.509Z,41.6
2023-02-02T12:24:46.072Z,41.1
2023-02-02T12:30:04.637Z,41.4
2023-02-02T12:35:23.079Z,41.9
2023-02-02T12:40:41.961Z,41.8
2023-02-02T12:46:03.457Z,40.9
2023-02-02T12:51:21.832Z,41
2023-02-02T12:56:40.784Z,41
2023-02-02T13:01:59.484Z,40.8
2023-02-02T13:07:17.791Z,41.2
2023-02-02T13:12:36.248Z,41.7
2023-02-02T13:17:55.065Z,41
2023-02-02T13:23:13.525Z,40.9
2023-02-02T13:28:31.786Z,41.1
2023-02-02T13:33:50.046Z,41.3
2023-02-02T13:39:08.573Z,41.1
2023-02-02T13:44:27.672Z,41
2023-02-02T13:49:46.215Z,41.5
2023-02-02T13:55:04.154Z,41
2023-02-02T14:00:22.619Z,41.2
2023-02-02T14:05:40.902Z,40.9
2023-02-02T14:10:59.637Z,41.4
2023-02-02T14:16:18.404Z,41
2023-02-02T14:21:37.307Z,41.5
2023-02-02T14:26:56.184Z,40.9
2023-02-02T14:32:14.735Z,41.3
2023-02-02T14:37:33.342Z,39.9
2023-02-02T14:42:51.616Z,40.9
2023-02-02T14:48:10.093Z,40.4
2023-02-02T14:53:28.958Z,40.7
2023-02-02T14:58:47.679Z,41.2
2023-02-02T15:04:06.176Z,40.8
2023-02-02T15:09:24.701Z,41.6
2023-02-02T15:14:44.273Z,40.9
2023-02-02T15:20:03.229Z,41.9
2023-02-02T15:25:23.053Z,42
2023-02-02T15:30:41.342Z,41.9
2023-02-02T15:36:00.293Z,41.2
2023-02-02T15:41:19.868Z,41.7
2023-02-02T15:46:38.114Z,41.3
2023-02-02T15:51:56.629Z,41.3
2023-02-02T15:57:14.864Z,41.3
2023-02-02T16:02:33.618Z,41.7
2023-02-02T16:08:06.645Z,41.9
2023-02-02T16:13:25.627Z,41.8
2023-02-02T16:18:43.791Z,42.2
2023-02-02T16:24:02.618Z,42.2
2023-02-02T16:29:05.802Z,41.6
2023-02-02T16:34:24.156Z,41.8
2023-02-02T16:39:42.618Z,42.3
2023-02-02T16:45:01.294Z,41.7
2023-02-02T16:50:19.504Z,42.4
2023-02-02T16:55:52.511Z,42
2023-02-02T17:01:17.383Z,41.7
2023-02-02T17:06:53.673Z,41.9
2023-02-02T17:12:35.453Z,41.6
2023-02-02T17:17:54.357Z,41.5
2023-02-02T17:23:12.278Z,42.2
2023-02-02T17:28:31.108Z,42.2
2023-02-02T17:33:49.331Z,41.8
2023-02-02T17:39:11.321Z,41.6
2023-02-02T17:44:14.736Z,41.1
2023-02-02T17:49:33.535Z,41.8
2023-02-02T17:54:51.776Z,41.2
2023-02-02T18:00:09.983Z,41.9
2023-02-02T18:05:29.479Z,42
2023-02-02T18:10:47.681Z,41.4
2023-02-02T18:16:06.344Z,41.1
2023-02-02T18:21:24.834Z,41.2
2023-02-02T18:26:43.169Z,41.2
2023-02-02T18:32:02.008Z,40.7
2023-02-02T18:37:19.991Z,41
2023-02-02T18:42:38.225Z,40.5
2023-02-02T18:47:57.000Z,41.1
2023-02-02T18:53:15.563Z,41.2
2023-02-02T18:58:33.532Z,41.8
2023-02-02T19:03:57.742Z,41
2023-02-02T19:09:16.546Z,41.8
2023-02-02T19:14:34.880Z,41
2023-02-02T19:19:53.367Z,41.6
2023-02-02T19:25:11.911Z,41.6
2023-02-02T19:30:36.082Z,41.6
2023-02-02T19:35:55.104Z,42
2023-02-02T19:41:13.462Z,41.2
2023-02-02T19:46:31.933Z,41.8
2023-02-02T19:51:50.350Z,41.1
2023-02-02T19:57:09.196Z,41.3
2023-02-02T20:02:27.357Z,42
2023-02-02T20:07:45.868Z,41.3
2023-02-02T20:13:04.413Z,42
2023-02-02T20:18:23.211Z,42.1
2023-02-02T20:23:41.690Z,41.7
2023-02-02T20:29:00.393Z,42.2
2023-02-02T20:34:18.893Z,41.4
2023-02-02T20:39:37.137Z,42.2
2023-02-02T20:44:55.647Z,41.5
2023-02-02T20:50:13.842Z,42.1
2023-02-02T20:55:32.066Z,41.5
2023-02-02T21:00:50.458Z,41.5
2023-02-02T21:06:08.472Z,41.4
2023-02-02T21:11:26.994Z,41.5
2023-02-02T21:16:45.549Z,41.6
2023-02-02T21:22:03.833Z,42.4
2023-02-02T21:27:22.894Z,42.6
2023-02-02T21:32:40.845Z,41.8
2023-02-02T21:37:59.674Z,41.7
2023-02-02T21:43:18.646Z,42.1
2023-02-02T21:48:36.898Z,43.2
2023-02-02T21:53:55.502Z,42.7
2023-02-02T21:59:13.929Z,43.4
2023-02-02T22:04:32.783Z,43.3
2023-02-02T22:09:51.720Z,43.6
2023-02-02T22:15:10.236Z,43.6
2023-02-02T22:20:29.462Z,43.1
2023-02-02T22:25:47.773Z,43.8
2023-02-02T22:31:06.558Z,43.4
2023-02-02T22:36:25.008Z,43.3
2023-02-02T22:41:43.836Z,43.2
2023-02-02T22:47:02.163Z,43.4
2023-02-02T22:52:20.659Z,43.5
2023-02-02T22:57:39.413Z,44
2023-02-02T23:02:57.904Z,43.9
2023-02-02T23:08:16.430Z,44.2
2023-02-02T23:13:34.357Z,44
2023-02-02T23:18:52.821Z,43.9
2023-02-02T23:24:11.639Z,44
2023-02-02T23:29:30.385Z,43.4
2023-02-02T23:34:33.250Z,44.2
2023-02-02T23:39:51.785Z,43.6
2023-02-02T23:45:10.295Z,43.6
2023-02-02T23:50:29.532Z,43.6
2023-02-02T23:55:48.259Z,43.8
